Neenah, WI (54956)

6:46 AM CDT on August 31, 2015 (GMT -0500)
Near Heckrodt Wetland Reserve | | Change Station
CLOSE
Current Station
Personal Weather Station
Location: Menasha, WI
Elevation: 755 ft
Nearby Weather Stations
Active Advisory: Special Statement

Elev 755 ft 44.21 °N, 88.43 °W | Updated 9 seconds ago

Fog
Fog
62.6 °F
Feels Like 62.6 °F
N
1.0
Wind Variable Wind from SW
Gusts 3.0 mph

Today
High -- | Low -- °F
--% Chance of Precip.
Yesterday
High -- | Low -- °F
Precip. -- in
6:15 AM 7:32 PM
Waning Gibbous, 96% visible
Pressure 30.01 in
Visibility 0.2 miles
Clouds
Dew Point 62 °F
Humidity 98%
Rainfall 0.00 in
Snow Depth Not available.
UV Not available.
Pollen 10.10 out of 12
Air Quality Not available.
Flu Activity Not available.
METAR KATW 311045Z 00000KT 1/4SM R03/1800FT FG VV003 16/16 A3001
Pressure 30.01 in
Visibility 0.2 miles
Clouds
Dew Point 62 °F
Humidity 98%
Rainfall 0.00 in
Snow Depth Not available.
UV Not available.
Pollen 10.10 out of 12
Air Quality Not available.
Flu Activity Not available.
METAR KATW 311045Z 00000KT 1/4SM R03/1800FT FG VV003 16/16 A3001

10-Day Weather Forecast

×

Almanac

Astronomy

Aug. 31, 2015 Rise Set
Actual Time
Civil Twilight
Nautical Twilight
Astronomical Twilight
Moon
Length of Visible Light
Length of Day
Tomorrow will be .
, % of the Moon is Illuminated

Today's Extremes

State Highs State Lows

Community

WunderPhotos

Upload Photos

1,851,219 photos uploaded!

WunderBlogs® & News

Nearby

Air Quality

  Air Quality AQ Index Pollutant
Not available.

Snow Depth

Station Depth Elevation

Earthquake Activity

City Distance Mag. Time & Date
Minimum magnitude displayed is 2.5.

Coastal Water Temperatures

Place Temperature

Stations

Nearby Weather Stations

Station Location Temp. Windchill Dew Point Humidity Wind Precip. Elev Updated Type
                   
Special Statement
Statement as of 4:22 AM CDT on August 31, 2015

... Areas of dense fog across central and east central Wisconsin...

Moist air combined with light winds and clear skies has resulted
in dense fog across parts of central and east central Wisconsin
again early this morning. Visibilities will be less than a quarter
mile in some areas so drive with care and be ready to slow down
when driving in fog. It should start to dissipate an hour or so
after sunrise.

Rdm

422 am CDT Mon Aug 31 2015

... Areas of dense fog across central and east central Wisconsin...

Moist air combined with light winds and clear skies has resulted
in dense fog across parts of central and east central Wisconsin
again early this morning. Visibilities will be less than a quarter
mile in some areas so drive with care and be ready to slow down
when driving in fog. It should start to dissipate an hour or so
after sunrise.

Rdm